Algowood — VCTD — position and weather

sailwx.info

Track history (hours):
 
Tides and Currents Weather Stations Pressure Air Temp Water Temp Dewpoint Dewpoint Depression Visibility Wind Speed Wind Dir Waves Ship Positions

Algowood

Last reported at 2018-Jun-22 09:32 UTC. Time now 2018-Jun-22 20:26 UTC.
Position N 45°20' W 083°06'.

Length 223 m; draft 8.1 m.

Type: Cargo ship. MMSI: 316001802.

Date/timePositionNaut miles runAvg speedWind from/ knotsBaromVisibWave heightAir tempDewpointWater temp
2018-Jun-22 09:32N 45°20' W 083°06'511.1
2018-Jun-22 09:04N 45°23' W 083°12'411.3
2018-Jun-22 08:41N 45°26' W 083°17'211.3
2018-Jun-22 08:30N 45°27' W 083°19'611.6
2018-Jun-22 08:00N 45°30' W 083°26'611.5
2018-Jun-22 07:30N 45°33' W 083°33'611.5
2018-Jun-22 07:00N 45°36' W 083°40'611.3
2018-Jun-22 06:29N 45°39' W 083°47'1011.3
2018-Jun-22 05:35N 45°44' W 083°60'111.2
2018-Jun-22 05:29N 45°45' W 084°01'511.1
2018-Jun-22 05:00N 45°48' W 084°07'610.9
2018-Jun-22 04:25N 45°49' W 084°16'510.9
2018-Jun-22 04:00N 45°50' W 084°23'610.9
2018-Jun-22 03:30N 45°51' W 084°31'510.0
2018-Jun-22 02:59N 45°50' W 084°38'510.1
2018-Jun-22 02:30N 45°49' W 084°45'510.5
2018-Jun-22 02:00N 45°50' W 084°52'610.8
2018-Jun-22 01:29N 45°51' W 085°00'510.8
2018-Jun-22 01:00N 45°51' W 085°08'610.8
2018-Jun-22 00:28N 45°52' W 085°16'510.7
2018-Jun-22 00:00N 45°53' W 085°23'610.5
2018-Jun-21 23:24N 45°53' W 085°32'410.3
2018-Jun-21 22:59N 45°54' W 085°38'510.4
2018-Jun-21 22:30N 45°54' W 085°45'5 9.8
2018-Jun-21 22:00N 45°54' W 085°52'3 5.5
2018-Jun-21 21:30N 45°57' W 085°53'1 2.3
2018-Jun-21 21:00N 45°58' W 085°52'0 0.2
2018-Jun-21 20:22N 45°58' W 085°52'0 0.0
2018-Jun-21 19:59N 45°58' W 085°52'0 0.1
2018-Jun-21 19:30N 45°58' W 085°52'0 0.0
2018-Jun-21 08:41N 45°58' W 085°52'0 1.0
2018-Jun-21 08:29N 45°58' W 085°53'1 1.7
2018-Jun-21 08:00N 45°57' W 085°53'4 6.7
2018-Jun-21 07:25N 45°53' W 085°53'511.3
2018-Jun-21 07:00N 45°49' W 085°56'611.5
2018-Jun-21 06:30N 45°43' W 085°59'811.8
2018-Jun-21 05:52N 45°37' W 086°03'811.8
2018-Jun-21 05:12N 45°29' W 086°08'411.5
2018-Jun-21 04:51N 45°26' W 086°10'411.5
2018-Jun-21 04:29N 45°22' W 086°12'  
2018-Jun-18 14:40N 45°44' W 085°58'2710.9
2018-Jun-18 12:10N 45°53' W 085°21'211.1
2018-Jun-18 11:58N 45°53' W 085°17'511.0
2018-Jun-18 11:30N 45°52' W 085°10'611.1
2018-Jun-18 10:59N 45°51' W 085°02'511.1
2018-Jun-18 10:30N 45°50' W 084°55'510.9
2018-Jun-18 10:00N 45°49' W 084°47'5 9.8
2018-Jun-18 09:30N 45°50' W 084°40'5 9.9
2018-Jun-18 08:59N 45°51' W 084°33'510.4
2018-Jun-18 08:30N 45°52' W 084°26'711.2
2018-Jun-18 07:50N 45°50' W 084°16'2311.1
2018-Jun-18 05:47N 45°37' W 083°48'311.4
2018-Jun-18 05:30N 45°35' W 083°45'611.2
2018-Jun-18 05:00N 45°32' W 083°38'510.9
2018-Jun-18 04:30N 45°28' W 083°32'611.0
2018-Jun-18 04:00N 45°25' W 083°26'611.1
2018-Jun-18 03:30N 45°22' W 083°20'  
Track history (hours):
 
Tides and Currents Weather Stations Pressure Air Temp Water Temp Dewpoint Dewpoint Depression Visibility Wind Speed Wind Dir Waves Ship Positions

Algowood

Last reported at 2018-Jun-22 09:32 UTC. Time now 2018-Jun-22 20:26 UTC.
Position N 45°20' W 083°06'.

Length 223 m; draft 8.1 m.

Type: Cargo ship. MMSI: 316001802.

Date/timePositionNaut miles runAvg speedWind from/ knotsBaromVisibWave heightAir tempDewpointWater temp
2018-Jun-22 09:32N 45°20' W 083°06'511.1
2018-Jun-22 09:04N 45°23' W 083°12'411.3
2018-Jun-22 08:41N 45°26' W 083°17'211.3
2018-Jun-22 08:30N 45°27' W 083°19'611.6
2018-Jun-22 08:00N 45°30' W 083°26'611.5
2018-Jun-22 07:30N 45°33' W 083°33'611.5
2018-Jun-22 07:00N 45°36' W 083°40'611.3
2018-Jun-22 06:29N 45°39' W 083°47'1011.3
2018-Jun-22 05:35N 45°44' W 083°60'111.2
2018-Jun-22 05:29N 45°45' W 084°01'511.1
2018-Jun-22 05:00N 45°48' W 084°07'610.9
2018-Jun-22 04:25N 45°49' W 084°16'510.9
2018-Jun-22 04:00N 45°50' W 084°23'610.9
2018-Jun-22 03:30N 45°51' W 084°31'510.0
2018-Jun-22 02:59N 45°50' W 084°38'510.1
2018-Jun-22 02:30N 45°49' W 084°45'510.5
2018-Jun-22 02:00N 45°50' W 084°52'610.8
2018-Jun-22 01:29N 45°51' W 085°00'510.8
2018-Jun-22 01:00N 45°51' W 085°08'610.8
2018-Jun-22 00:28N 45°52' W 085°16'510.7
2018-Jun-22 00:00N 45°53' W 085°23'610.5
2018-Jun-21 23:24N 45°53' W 085°32'410.3
2018-Jun-21 22:59N 45°54' W 085°38'510.4
2018-Jun-21 22:30N 45°54' W 085°45'5 9.8
2018-Jun-21 22:00N 45°54' W 085°52'3 5.5
2018-Jun-21 21:30N 45°57' W 085°53'1 2.3
2018-Jun-21 21:00N 45°58' W 085°52'0 0.2
2018-Jun-21 20:22N 45°58' W 085°52'0 0.0
2018-Jun-21 19:59N 45°58' W 085°52'0 0.1
2018-Jun-21 19:30N 45°58' W 085°52'0 0.0
2018-Jun-21 08:41N 45°58' W 085°52'0 1.0
2018-Jun-21 08:29N 45°58' W 085°53'1 1.7
2018-Jun-21 08:00N 45°57' W 085°53'4 6.7
2018-Jun-21 07:25N 45°53' W 085°53'511.3
2018-Jun-21 07:00N 45°49' W 085°56'611.5
2018-Jun-21 06:30N 45°43' W 085°59'811.8
2018-Jun-21 05:52N 45°37' W 086°03'811.8
2018-Jun-21 05:12N 45°29' W 086°08'411.5
2018-Jun-21 04:51N 45°26' W 086°10'411.5
2018-Jun-21 04:29N 45°22' W 086°12'  
2018-Jun-18 14:40N 45°44' W 085°58'2710.9
2018-Jun-18 12:10N 45°53' W 085°21'211.1
2018-Jun-18 11:58N 45°53' W 085°17'511.0
2018-Jun-18 11:30N 45°52' W 085°10'611.1
2018-Jun-18 10:59N 45°51' W 085°02'511.1
2018-Jun-18 10:30N 45°50' W 084°55'510.9
2018-Jun-18 10:00N 45°49' W 084°47'5 9.8
2018-Jun-18 09:30N 45°50' W 084°40'5 9.9
2018-Jun-18 08:59N 45°51' W 084°33'510.4
2018-Jun-18 08:30N 45°52' W 084°26'711.2
2018-Jun-18 07:50N 45°50' W 084°16'2311.1
2018-Jun-18 05:47N 45°37' W 083°48'311.4
2018-Jun-18 05:30N 45°35' W 083°45'611.2
2018-Jun-18 05:00N 45°32' W 083°38'510.9
2018-Jun-18 04:30N 45°28' W 083°32'611.0
2018-Jun-18 04:00N 45°25' W 083°26'611.1
2018-Jun-18 03:30N 45°22' W 083°20'  

Dump ship's entire track history